createdAt,value
2018-09-07T00:02:21.137Z,4.33
2018-09-07T00:04:49.253Z,3.80
2018-09-07T00:07:17.479Z,4.57
2018-09-07T00:09:45.532Z,4.80
2018-09-07T00:12:13.632Z,4.03
2018-09-07T00:14:42.733Z,5.37
2018-09-07T00:17:10.964Z,5.20
2018-09-07T00:19:39.592Z,5.00
2018-09-07T00:22:08.010Z,5.00
2018-09-07T00:24:36.766Z,4.70
2018-09-07T00:27:04.868Z,4.60
2018-09-07T00:29:33.233Z,4.63
2018-09-07T00:32:01.836Z,4.70
2018-09-07T00:34:29.954Z,5.33
2018-09-07T00:36:58.339Z,5.17
2018-09-07T00:39:27.394Z,4.60
2018-09-07T00:41:55.652Z,4.70
2018-09-07T00:44:23.936Z,4.63
2018-09-07T00:46:52.283Z,4.43
2018-09-07T00:49:20.438Z,4.10
2018-09-07T00:51:48.786Z,4.60
2018-09-07T00:54:16.792Z,5.30
2018-09-07T00:56:44.982Z,4.93
2018-09-07T00:59:13.194Z,4.40
2018-09-07T01:01:41.412Z,4.93
2018-09-07T01:04:09.689Z,4.80
2018-09-07T01:06:38.287Z,5.30
2018-09-07T01:09:07.388Z,4.97
2018-09-07T01:11:35.934Z,5.43
2018-09-07T01:14:04.454Z,6.10
2018-09-07T01:16:32.926Z,5.47
2018-09-07T01:19:01.088Z,4.23
2018-09-07T01:21:29.072Z,4.77
2018-09-07T01:23:57.030Z,4.50
2018-09-07T01:26:24.991Z,4.60
2018-09-07T01:28:53.063Z,5.47
2018-09-07T01:31:21.761Z,6.77
2018-09-07T01:33:49.801Z,6.07
2018-09-07T01:36:17.818Z,7.00
2018-09-07T01:38:45.936Z,7.70
2018-09-07T01:41:13.957Z,7.03
2018-09-07T01:43:42.174Z,5.97
2018-09-07T01:46:10.393Z,6.97
2018-09-07T01:48:38.779Z,6.17
2018-09-07T01:51:07.199Z,5.40
2018-09-07T01:53:35.438Z,7.13
2018-09-07T01:56:03.495Z,6.50
2018-09-07T01:58:31.468Z,6.70
2018-09-07T02:00:59.416Z,6.70
2018-09-07T02:03:31.762Z,7.67
2018-09-07T02:06:00.157Z,8.03
2018-09-07T02:08:33.404Z,9.57
2018-09-07T02:11:01.576Z,10.03
2018-09-07T02:13:30.986Z,9.27
2018-09-07T02:15:59.112Z,9.10
2018-09-07T02:18:28.169Z,9.53
2018-09-07T02:20:56.124Z,10.43
2018-09-07T02:23:24.104Z,10.90
2018-09-07T02:25:52.090Z,11.50
2018-09-07T02:28:20.171Z,9.97
2018-09-07T02:30:48.250Z,10.80
2018-09-07T02:33:16.386Z,11.27
2018-09-07T02:35:44.517Z,11.37
2018-09-07T02:38:12.660Z,11.80
2018-09-07T02:40:40.852Z,11.70
2018-09-07T02:43:09.288Z,12.97
2018-09-07T02:45:37.724Z,13.03
2018-09-07T02:48:06.283Z,11.20
2018-09-07T02:50:34.499Z,12.47
2018-09-07T02:53:02.654Z,14.13
2018-09-07T02:55:31.837Z,11.23
2018-09-07T02:57:59.801Z,12.50
2018-09-07T03:00:28.244Z,13.00
2018-09-07T03:02:56.922Z,13.43
2018-09-07T03:05:25.232Z,13.80
2018-09-07T03:07:53.437Z,14.67
2018-09-07T03:10:21.472Z,14.33
2018-09-07T03:12:49.872Z,13.97
2018-09-07T03:15:18.291Z,15.20
2018-09-07T03:17:46.498Z,16.30
2018-09-07T03:20:14.584Z,14.37
2018-09-07T03:22:43.392Z,15.80
2018-09-07T03:25:11.508Z,15.97
2018-09-07T03:27:39.868Z,16.80
2018-09-07T03:30:08.179Z,16.70
2018-09-07T03:32:36.668Z,17.70
2018-09-07T03:35:05.048Z,16.03
2018-09-07T03:37:33.285Z,16.70
2018-09-07T03:40:01.733Z,17.53
2018-09-07T03:42:29.806Z,17.77
2018-09-07T03:44:57.735Z,18.00
2018-09-07T03:47:25.738Z,16.87
2018-09-07T03:49:53.733Z,17.50
2018-09-07T03:52:21.755Z,18.87
2018-09-07T03:54:49.738Z,17.87
2018-09-07T03:57:17.748Z,17.80
2018-09-07T03:59:46.228Z,20.13
2018-09-07T04:02:14.375Z,19.77
2018-09-07T04:04:42.436Z,18.67
2018-09-07T04:07:10.716Z,19.40
2018-09-07T04:09:39.873Z,18.40
2018-09-07T04:12:08.493Z,19.40
2018-09-07T04:14:37.673Z,17.27
2018-09-07T04:17:06.334Z,18.60
2018-09-07T04:19:35.368Z,19.53
2018-09-07T04:22:05.541Z,18.63
2018-09-07T04:24:33.738Z,18.90
2018-09-07T04:27:01.897Z,20.90
2018-09-07T04:29:30.084Z,19.37
2018-09-07T04:31:58.040Z,17.20
2018-09-07T04:34:26.078Z,19.47
2018-09-07T04:36:54.149Z,17.50
2018-09-07T04:39:22.756Z,17.33
2018-09-07T04:41:50.784Z,19.83
2018-09-07T04:44:18.805Z,16.30
2018-09-07T04:46:46.913Z,20.70
2018-09-07T04:49:16.311Z,19.03
2018-09-07T04:51:44.926Z,18.27
2018-09-07T04:54:13.279Z,18.80
2018-09-07T04:56:41.607Z,17.63
2018-09-07T04:59:11.958Z,19.10
2018-09-07T05:01:40.454Z,20.87
2018-09-07T05:04:09.738Z,20.83
2018-09-07T05:06:38.592Z,18.37
2018-09-07T05:09:07.812Z,19.10
2018-09-07T05:11:36.096Z,19.53
2018-09-07T05:14:04.454Z,19.30
2018-09-07T05:16:33.006Z,21.20
2018-09-07T05:19:01.589Z,20.53
2018-09-07T05:21:30.079Z,19.23
2018-09-07T05:23:58.138Z,19.50
2018-09-07T05:26:26.241Z,21.23
2018-09-07T05:28:54.293Z,20.60
2018-09-07T05:31:22.496Z,19.23
2018-09-07T05:33:50.717Z,21.37
2018-09-07T05:36:18.987Z,21.23
2018-09-07T05:38:47.258Z,18.50
2018-09-07T05:41:15.556Z,20.77
2018-09-07T05:43:44.026Z,20.93
2018-09-07T05:46:12.653Z,21.43
2018-09-07T05:48:40.821Z,22.30
2018-09-07T05:51:09.160Z,21.13
2018-09-07T05:53:37.637Z,22.53
2018-09-07T05:56:06.211Z,22.70
2018-09-07T05:58:34.594Z,23.10
2018-09-07T06:01:02.973Z,24.40
2018-09-07T06:03:31.660Z,21.27
2018-09-07T06:06:00.047Z,24.37
2018-09-07T06:08:28.210Z,25.60
2018-09-07T06:10:56.374Z,24.80
2018-09-07T06:13:24.980Z,25.10
2018-09-07T06:15:53.391Z,28.00
2018-09-07T06:18:21.548Z,26.70
2018-09-07T06:20:50.117Z,24.30
2018-09-07T06:23:18.345Z,28.60
2018-09-07T06:25:46.594Z,27.90
2018-09-07T06:28:14.882Z,26.77
2018-09-07T06:30:43.409Z,27.97
2018-09-07T06:33:11.898Z,26.93
2018-09-07T06:35:40.596Z,23.77
2018-09-07T06:38:09.230Z,27.40
2018-09-07T06:40:38.213Z,27.50
2018-09-07T06:43:07.038Z,26.60
2018-09-07T06:45:36.144Z,26.30
2018-09-07T06:48:04.663Z,25.70
2018-09-07T06:50:32.969Z,25.90
2018-09-07T06:53:02.300Z,26.40
2018-09-07T06:55:30.596Z,25.83
2018-09-07T06:57:58.818Z,25.07
2018-09-07T07:00:28.046Z,27.40
2018-09-07T07:02:56.726Z,26.83
2018-09-07T07:05:24.861Z,25.93
2018-09-07T07:07:59.616Z,24.00
2018-09-07T07:10:28.549Z,23.80
2018-09-07T07:13:00.753Z,24.67
2018-09-07T07:15:31.982Z,22.70
2018-09-07T07:18:01.197Z,22.47
2018-09-07T07:20:30.009Z,23.30
2018-09-07T07:23:01.455Z,24.63
2018-09-07T07:25:29.710Z,26.17
2018-09-07T07:27:59.390Z,25.90
2018-09-07T07:30:27.977Z,24.50
2018-09-07T07:35:36.253Z,21.50
2018-09-07T07:38:04.950Z,22.53
2018-09-07T07:40:34.214Z,22.00
2018-09-07T07:43:03.443Z,21.70
2018-09-07T07:45:38.937Z,24.43
2018-09-07T07:48:07.770Z,21.70
2018-09-07T07:50:40.428Z,24.83
2018-09-07T07:53:13.085Z,22.07
2018-09-07T07:55:42.080Z,20.30
2018-09-07T07:58:13.427Z,19.53
2018-09-07T08:00:43.830Z,16.50
2018-09-07T08:03:13.341Z,17.67
2018-09-07T08:08:24.329Z,17.60
2018-09-07T08:10:52.483Z,21.00
2018-09-07T08:13:21.283Z,19.50
2018-09-07T08:15:49.568Z,19.37
2018-09-07T08:18:24.091Z,18.47
2018-09-07T08:20:57.285Z,18.73
2018-09-07T08:23:25.619Z,19.73
2018-09-07T08:25:54.430Z,18.17
2018-09-07T08:28:24.858Z,23.70
2018-09-07T08:30:58.427Z,20.07
2018-09-07T08:33:26.947Z,17.50
2018-09-07T08:35:56.328Z,19.57
2018-09-07T08:38:24.561Z,16.27
2018-09-07T08:40:53.278Z,17.30
2018-09-07T08:43:21.545Z,15.03
2018-09-07T08:45:49.762Z,16.33
2018-09-07T08:48:17.993Z,16.40
2018-09-07T08:50:46.192Z,17.87
2018-09-07T08:53:14.652Z,17.23
2018-09-07T08:55:43.316Z,17.97
2018-09-07T08:58:20.625Z,18.63
2018-09-07T09:00:49.078Z,16.97
2018-09-07T09:03:17.459Z,17.50
2018-09-07T09:05:46.362Z,18.27
2018-09-07T09:08:14.891Z,16.67
2018-09-07T09:10:43.599Z,17.00
2018-09-07T09:13:12.483Z,15.53
2018-09-07T09:15:41.308Z,15.80
2018-09-07T09:18:10.073Z,14.40
2018-09-07T09:20:43.431Z,17.20
2018-09-07T09:23:12.028Z,17.40
2018-09-07T09:25:40.853Z,15.27
2018-09-07T09:28:10.456Z,15.47
2018-09-07T09:30:39.003Z,14.73
2018-09-07T09:33:08.835Z,13.70
2018-09-07T09:35:39.208Z,14.80
2018-09-07T09:38:07.681Z,14.40
2018-09-07T09:40:36.636Z,15.40
2018-09-07T09:43:05.365Z,13.40
2018-09-07T09:45:33.889Z,16.40
2018-09-07T09:48:02.466Z,14.67
2018-09-07T09:50:30.933Z,16.93
2018-09-07T09:53:05.319Z,12.43
2018-09-07T09:55:36.429Z,13.20
2018-09-07T09:58:05.012Z,13.20
2018-09-07T10:00:38.807Z,12.53
2018-09-07T10:03:14.456Z,12.83
2018-09-07T10:05:42.709Z,13.40
2018-09-07T10:08:11.868Z,13.40
2018-09-07T10:10:40.253Z,12.50
2018-09-07T10:13:08.816Z,13.20
2018-09-07T10:15:37.419Z,11.70
2018-09-07T10:18:05.998Z,11.60
2018-09-07T10:20:34.590Z,10.80
2018-09-07T10:23:05.732Z,12.93
2018-09-07T10:25:34.178Z,12.60
2018-09-07T10:28:07.976Z,13.47
2018-09-07T10:30:37.305Z,13.80
2018-09-07T10:38:20.899Z,13.17
2018-09-07T10:40:52.652Z,13.30
2018-09-07T10:43:21.079Z,13.10
2018-09-07T10:46:04.128Z,12.53
2018-09-07T10:48:32.226Z,12.70
2018-09-07T10:53:47.983Z,12.53
2018-09-07T10:59:10.264Z,11.60
2018-09-07T11:12:34.629Z,10.20
2018-09-07T11:15:04.297Z,11.60
2018-09-07T11:17:42.136Z,10.40
2018-09-07T11:20:11.460Z,9.03
2018-09-07T11:33:21.575Z,9.00
2018-09-07T11:41:18.179Z,8.17
2018-09-07T11:43:48.106Z,25.10
2018-09-07T11:46:18.338Z,13.90
2018-09-07T11:48:46.669Z,13.40
2018-09-07T11:51:16.283Z,9.30
2018-09-07T11:53:52.838Z,7.37
2018-09-07T11:56:24.097Z,9.40
2018-09-07T11:58:54.582Z,8.43
2018-09-07T12:01:24.911Z,9.47
2018-09-07T12:03:55.089Z,8.60
2018-09-07T12:09:06.159Z,9.73
2018-09-07T12:11:34.525Z,13.10
2018-09-07T12:14:07.826Z,16.17
2018-09-07T12:19:12.331Z,6.90
2018-09-07T12:21:40.712Z,7.00
2018-09-07T12:24:12.097Z,8.40
2018-09-07T12:26:40.819Z,8.60
2018-09-07T12:29:10.298Z,9.43
2018-09-07T12:31:40.812Z,9.20
2018-09-07T12:34:12.587Z,7.87
2018-09-07T12:36:40.994Z,6.60
2018-09-07T12:39:14.027Z,7.50
2018-09-07T12:41:43.137Z,7.70
2018-09-07T12:44:11.759Z,7.87
2018-09-07T12:46:40.880Z,6.63
2018-09-07T12:49:10.400Z,7.97
2018-09-07T12:51:39.518Z,7.73
2018-09-07T12:54:09.192Z,8.77
2018-09-07T12:56:38.216Z,12.80
2018-09-07T12:59:11.320Z,12.23
2018-09-07T13:09:58.354Z,15.00
2018-09-07T13:12:37.703Z,15.37
2018-09-07T13:17:55.578Z,15.57
2018-09-07T13:20:26.352Z,15.43
2018-09-07T13:23:06.659Z,14.50
2018-09-07T13:31:03.580Z,13.10
2018-09-07T13:33:42.419Z,12.43
2018-09-07T13:36:13.094Z,13.53
2018-09-07T13:44:43.230Z,13.50
2018-09-07T13:52:42.504Z,14.10
2018-09-07T13:55:18.161Z,14.30
2018-09-07T14:00:27.819Z,15.47
2018-09-07T14:08:32.373Z,13.43
2018-09-07T14:11:06.717Z,13.43
2018-09-07T14:16:09.627Z,11.90
2018-09-07T14:18:41.925Z,11.27
2018-09-07T14:24:09.875Z,10.67
2018-09-07T14:32:08.692Z,11.93
2018-09-07T14:37:19.187Z,11.60
2018-09-07T14:39:48.290Z,13.07
2018-09-07T14:45:06.339Z,11.33
2018-09-07T14:47:45.268Z,13.13
2018-09-07T14:52:50.212Z,12.93
2018-09-07T15:03:24.292Z,23.30
2018-09-07T15:31:07.908Z,12.90
2018-09-07T15:33:46.100Z,12.60
2018-09-07T15:36:25.067Z,12.77
2018-09-07T15:48:12.244Z,10.60
2018-09-07T15:50:49.643Z,10.20
2018-09-07T16:02:14.718Z,13.43
2018-09-07T16:12:57.759Z,11.73
2018-09-07T16:35:58.592Z,12.47
2018-09-07T16:38:37.498Z,11.50
2018-09-07T16:41:11.031Z,12.80
2018-09-07T16:43:40.274Z,10.13
2018-09-07T16:46:09.539Z,10.10
2018-09-07T16:48:38.399Z,11.30
2018-09-07T16:51:10.482Z,11.40
2018-09-07T16:53:43.572Z,10.93
2018-09-07T16:56:14.143Z,12.50
2018-09-07T16:58:47.565Z,10.97
2018-09-07T17:01:27.196Z,12.53
2018-09-07T17:06:38.240Z,12.87
2018-09-07T17:09:08.767Z,13.07
2018-09-07T17:11:49.136Z,13.53
2018-09-07T17:14:18.364Z,14.97
2018-09-07T17:16:47.505Z,13.03
2018-09-07T17:19:20.690Z,11.73
2018-09-07T17:21:49.243Z,13.13
2018-09-07T17:24:18.346Z,15.00
2018-09-07T17:29:28.940Z,12.37
2018-09-07T17:32:08.352Z,12.97
2018-09-07T17:34:42.418Z,13.00
2018-09-07T17:39:56.410Z,15.23
2018-09-07T17:42:25.464Z,14.10
2018-09-07T17:44:53.802Z,14.27
2018-09-07T17:50:26.917Z,12.87
2018-09-07T17:55:47.263Z,13.70
2018-09-07T17:58:15.886Z,14.20
2018-09-07T18:03:28.297Z,15.20
2018-09-07T18:06:04.422Z,15.17
2018-09-07T18:08:33.105Z,16.77
2018-09-07T18:11:10.695Z,15.60
2018-09-07T18:13:39.311Z,16.40
2018-09-07T18:16:12.404Z,15.27
2018-09-07T18:21:36.755Z,15.80
2018-09-07T18:24:09.827Z,16.23
2018-09-07T18:26:38.936Z,16.10
2018-09-07T18:29:10.308Z,15.13
2018-09-07T18:32:03.252Z,16.90
2018-09-07T18:37:06.535Z,15.73
2018-09-07T18:39:35.887Z,17.63
2018-09-07T18:42:04.942Z,17.73
2018-09-07T18:47:11.499Z,18.40
2018-09-07T18:49:41.103Z,18.77
2018-09-07T18:52:10.176Z,19.57
2018-09-07T18:54:38.567Z,18.97
2018-09-07T18:57:07.649Z,20.67
2018-09-07T18:59:36.945Z,20.07
2018-09-07T19:02:19.114Z,18.13
2018-09-07T19:04:48.049Z,20.27
2018-09-07T19:07:22.232Z,19.37
2018-09-07T19:09:55.314Z,19.37
2018-09-07T19:12:31.732Z,18.93
2018-09-07T19:15:01.111Z,19.60
2018-09-07T19:17:29.957Z,20.20
2018-09-07T19:19:58.189Z,21.73
2018-09-07T19:22:28.203Z,22.25
2018-09-07T19:24:58.412Z,21.40
2018-09-07T19:27:27.079Z,20.83
2018-09-07T19:32:43.556Z,21.87
2018-09-07T19:37:53.321Z,21.50
2018-09-07T19:40:21.613Z,23.10
2018-09-07T19:42:51.362Z,22.67
2018-09-07T19:45:21.873Z,21.10
2018-09-07T19:47:50.739Z,20.97
2018-09-07T19:50:20.023Z,20.50
2018-09-07T19:52:48.666Z,23.07
2018-09-07T19:55:18.702Z,25.10
2018-09-07T19:57:48.241Z,22.53
2018-09-07T20:00:18.621Z,20.33
2018-09-07T20:02:47.800Z,22.47
2018-09-07T20:05:20.139Z,21.83
2018-09-07T20:07:48.362Z,23.00
2018-09-07T20:10:22.825Z,23.43
2018-09-07T20:12:51.044Z,23.10
2018-09-07T20:15:19.339Z,23.50
2018-09-07T20:17:49.089Z,24.43
2018-09-07T20:20:17.754Z,25.40
2018-09-07T20:22:46.581Z,24.10
2018-09-07T20:25:16.001Z,24.30
2018-09-07T20:27:44.402Z,23.60
2018-09-07T20:30:15.397Z,22.97
2018-09-07T20:32:43.909Z,26.30
2018-09-07T20:35:12.136Z,25.47
2018-09-07T20:37:43.906Z,25.40
2018-09-07T20:40:12.832Z,25.10
2018-09-07T20:42:43.136Z,25.13
2018-09-07T20:45:13.339Z,22.40
2018-09-07T20:47:42.812Z,23.50
2018-09-07T20:50:11.654Z,23.40
2018-09-07T20:52:40.246Z,24.33
2018-09-07T20:55:08.655Z,25.27
2018-09-07T20:57:40.470Z,24.40
2018-09-07T21:00:10.105Z,23.50
2018-09-07T21:02:38.487Z,18.83
2018-09-07T21:07:46.758Z,20.90
2018-09-07T21:10:15.133Z,18.93
2018-09-07T21:15:38.225Z,17.40
2018-09-07T21:18:10.072Z,17.97
2018-09-07T21:20:39.347Z,19.73
2018-09-07T21:23:17.540Z,17.90
2018-09-07T21:25:46.199Z,18.70
2018-09-07T21:28:15.764Z,19.57
2018-09-07T21:30:44.367Z,20.40
2018-09-07T21:33:13.043Z,18.60
2018-09-07T21:35:41.377Z,16.73
2018-09-07T21:40:51.290Z,17.83
2018-09-07T21:45:59.518Z,18.50
2018-09-07T21:48:27.577Z,18.80
2018-09-07T21:50:55.807Z,16.43
2018-09-07T21:53:23.865Z,18.40
2018-09-07T21:55:51.980Z,14.93
2018-09-07T21:58:19.994Z,16.50
2018-09-07T22:00:48.237Z,16.47
2018-09-07T22:03:16.577Z,17.40
2018-09-07T22:05:45.039Z,15.90
2018-09-07T22:08:13.695Z,15.57
2018-09-07T22:10:41.915Z,14.20
2018-09-07T22:13:10.148Z,13.77
2018-09-07T22:15:38.967Z,13.27
2018-09-07T22:18:08.254Z,13.73
2018-09-07T22:20:37.418Z,16.57
2018-09-07T22:23:06.427Z,15.27
2018-09-07T22:25:35.874Z,15.23
2018-09-07T22:28:04.293Z,14.67
2018-09-07T22:30:32.422Z,17.13
2018-09-07T22:33:00.365Z,16.00
2018-09-07T22:35:28.380Z,15.13
2018-09-07T22:37:56.585Z,16.53
2018-09-07T22:40:24.568Z,15.60
2018-09-07T22:42:52.603Z,15.60
2018-09-07T22:45:20.837Z,14.40
2018-09-07T22:47:48.846Z,14.83
2018-09-07T22:50:17.248Z,15.30
2018-09-07T22:52:45.561Z,14.73
2018-09-07T22:55:13.837Z,15.40
2018-09-07T22:57:43.284Z,15.63
2018-09-07T23:00:13.027Z,13.80
2018-09-07T23:02:42.021Z,14.17
2018-09-07T23:05:10.262Z,15.03
2018-09-07T23:07:42.327Z,13.63
2018-09-07T23:10:16.831Z,13.80
2018-09-07T23:12:45.254Z,16.20
2018-09-07T23:15:13.460Z,14.80
2018-09-07T23:17:41.673Z,15.83
2018-09-07T23:20:15.061Z,13.67
2018-09-07T23:22:43.321Z,13.60
2018-09-07T23:25:11.579Z,15.50
2018-09-07T23:27:39.789Z,14.43
2018-09-07T23:30:10.005Z,13.73
2018-09-07T23:32:41.293Z,14.23
2018-09-07T23:35:12.197Z,15.43
2018-09-07T23:37:40.423Z,14.53
2018-09-07T23:40:08.852Z,14.77
2018-09-07T23:42:40.146Z,13.43
2018-09-07T23:45:09.464Z,14.10
2018-09-07T23:47:46.986Z,15.70
2018-09-07T23:50:15.108Z,14.40
2018-09-07T23:52:43.267Z,15.37
2018-09-07T23:55:11.655Z,15.17
2018-09-07T23:57:40.194Z,14.50
